Time;durP1;ratioP1;P1;durP2;ratioP2;P2;SDS_P1;SDS_P2;PMS_P1;PMS_P2;Temp;Humidity;BMP_temperature;BMP_pressure;BME280_temperature;BME280_humidity;BME280_pressure;Samples;Min_cycle;Max_cycle;Signal;HPM_P1;HPM_P2
2024/01/10 00:01:46;;;;;;;1.20;1.10;;;-3.90;31.40;;;;;;5012152;28;20457;-40
2024/01/10 00:04:11;;;;;;;1.37;1.10;;;-3.90;31.60;;;;;;5012207;28;20179;-42
2024/01/10 00:06:37;;;;;;;0.80;0.40;;;-4.00;31.70;;;;;;5012350;28;20475;-45
2024/01/10 00:09:03;;;;;;;3.43;3.23;;;-4.00;31.60;;;;;;5012572;28;20508;-44
2024/01/10 00:11:29;;;;;;;1.00;0.57;;;-4.10;31.70;;;;;;5013266;28;20182;-45
2024/01/10 00:13:59;;;;;;;1.98;1.85;;;-4.00;31.90;;;;;;5012987;28;20817;-43
2024/01/10 00:16:26;;;;;;;4.20;1.38;;;-4.00;31.80;;;;;;5012333;28;20212;-40
2024/01/10 00:18:52;;;;;;;1.55;1.45;;;-4.10;31.60;;;;;;5011880;28;20171;-42
2024/01/10 00:21:18;;;;;;;0.80;0.60;;;-4.00;31.60;;;;;;5012105;28;20178;-45
2024/01/10 00:23:43;;;;;;;1.98;1.45;;;-4.00;32.10;;;;;;5011213;28;20791;-45
2024/01/10 00:26:09;;;;;;;2.20;1.70;;;-4.10;31.40;;;;;;5011948;28;20178;-43
2024/01/10 00:28:35;;;;;;;2.80;2.50;;;-4.10;31.50;;;;;;5011882;28;20202;-48
2024/01/10 00:31:01;;;;;;;3.83;2.37;;;-4.00;31.70;;;;;;5011588;28;20564;-44
2024/01/10 00:33:27;;;;;;;0.70;0.40;;;-4.10;31.50;;;;;;5011747;28;20453;-45
2024/01/10 00:35:53;;;;;;;1.20;1.10;;;-4.10;31.50;;;;;;5012140;28;20270;-43
2024/01/10 00:38:19;;;;;;;1.40;0.90;;;-4.10;31.40;;;;;;5012168;28;20437;-50
2024/01/10 00:40:44;;;;;;;0.80;0.63;;;-4.10;31.70;;;;;;5011585;28;20452;-45
2024/01/10 00:43:10;;;;;;;0.80;0.60;;;-4.10;31.60;;;;;;5011785;28;20265;-41
2024/01/10 00:45:36;;;;;;;1.33;1.23;;;-4.20;31.40;;;;;;5011728;28;20445;-45
2024/01/10 00:48:02;;;;;;;3.13;2.83;;;-4.20;31.40;;;;;;5011610;28;20418;-42
2024/01/10 00:50:28;;;;;;;4.47;3.80;;;-4.20;31.60;;;;;;5011439;28;20433;-46
2024/01/10 00:52:54;;;;;;;2.50;1.53;;;-4.10;31.70;;;;;;5011673;28;20421;-46
2024/01/10 00:55:19;;;;;;;1.37;1.27;;;-4.20;31.30;;;;;;5011869;28;20418;-42
2024/01/10 00:57:45;;;;;;;0.90;0.60;;;-4.20;31.10;;;;;;5011677;28;20732;-47
2024/01/10 01:00:12;;;;;;;1.33;1.20;;;-4.20;31.30;;;;;;5011422;28;20430;-48
2024/01/10 01:02:41;;;;;;;2.03;1.92;;;-4.20;31.20;;;;;;5011571;28;20186;-41
2024/01/10 01:05:07;;;;;;;1.25;1.15;;;-4.30;31.10;;;;;;5011555;28;20191;-44
2024/01/10 01:07:33;;;;;;;2.60;2.15;;;-4.30;31.00;;;;;;5011764;28;20183;-43
2024/01/10 01:09:59;;;;;;;6.25;4.10;;;-4.30;31.10;;;;;;5011345;28;20209;-40
2024/01/10 01:12:25;;;;;;;1.77;0.82;;;-4.40;30.90;;;;;;5011373;28;20183;-44
2024/01/10 01:14:51;;;;;;;2.08;1.85;;;-4.40;31.10;;;;;;5011302;28;20588;-47
2024/01/10 01:17:17;;;;;;;1.90;1.77;;;-4.50;31.10;;;;;;5011425;28;20171;-42
2024/01/10 01:19:43;;;;;;;2.55;2.05;;;-4.50;31.20;;;;;;5011554;28;20460;-46
2024/01/10 01:22:09;;;;;;;1.00;0.87;;;-4.50;31.20;;;;;;5011623;28;20175;-46
2024/01/10 01:24:34;;;;;;;2.10;1.80;;;-4.50;31.20;;;;;;5011270;28;20923;-42
2024/01/10 01:27:00;;;;;;;4.63;4.23;;;-4.60;31.00;;;;;;5011421;28;20492;-42
2024/01/10 01:29:27;;;;;;;2.33;2.23;;;-4.60;31.30;;;;;;5011074;28;20515;-46
2024/01/10 01:31:53;;;;;;;0.70;0.20;;;-4.50;31.40;;;;;;5011378;28;20408;-41
2024/01/10 01:34:19;;;;;;;5.05;2.42;;;-4.50;31.30;;;;;;5012227;28;20245;-46
2024/01/10 01:36:45;;;;;;;0.70;0.30;;;-4.50;31.20;;;;;;5014898;28;20225;-42
2024/01/10 01:39:13;;;;;;;0.70;0.30;;;-4.60;31.20;;;;;;5014458;28;20762;-43
2024/01/10 01:41:39;;;;;;;0.70;0.45;;;-4.60;31.40;;;;;;5014717;28;20187;-47
2024/01/10 01:44:05;;;;;;;5.38;4.22;;;-4.60;31.40;;;;;;5014614;28;20269;-42
2024/01/10 01:46:32;;;;;;;2.57;1.60;;;-4.60;31.50;;;;;;5031855;28;20612;-45
2024/01/10 01:48:59;;;;;;;4.50;3.25;;;-4.60;31.50;;;;;;5034265;28;20420;-48
2024/01/10 01:51:28;;;;;;;7.63;4.35;;;-4.60;31.30;;;;;;5034262;28;20197;-42
2024/01/10 01:53:54;;;;;;;4.10;3.90;;;-4.60;31.30;;;;;;5034253;28;20197;-40
2024/01/10 01:56:20;;;;;;;2.38;2.28;;;-4.60;31.10;;;;;;5034163;28;20417;-45
2024/01/10 01:58:47;;;;;;;1.27;1.05;;;-4.60;31.10;;;;;;5034025;28;20261;-48
2024/01/10 02:01:14;;;;;;;1.60;1.50;;;-4.60;31.10;;;;;;5034206;28;20206;-42
2024/01/10 02:03:40;;;;;;;5.60;4.43;;;-4.60;31.30;;;;;;5033971;28;20559;-44
2024/01/10 02:06:06;;;;;;;4.10;3.10;;;-4.70;31.10;;;;;;5034080;28;20178;-46
2024/01/10 02:08:33;;;;;;;1.52;1.42;;;-4.70;31.10;;;;;;5033933;28;20504;-44
2024/01/10 02:11:03;;;;;;;1.77;1.63;;;-4.70;31.00;;;;;;5033966;28;20213;-41
2024/01/10 02:13:29;;;;;;;1.88;1.77;;;-4.70;31.10;;;;;;5033691;28;20456;-48
2024/01/10 02:15:56;;;;;;;1.58;1.33;;;-4.70;31.30;;;;;;5034052;28;20185;-48
2024/01/10 02:18:22;;;;;;;3.72;3.53;;;-4.70;31.30;;;;;;5034000;28;20178;-43
2024/01/10 02:20:48;;;;;;;1.23;1.13;;;-4.80;31.10;;;;;;5033612;28;20205;-41
2024/01/10 02:23:14;;;;;;;2.45;2.25;;;-4.80;31.20;;;;;;5033746;28;20853;-46
2024/01/10 02:25:41;;;;;;;1.20;1.10;;;-4.80;31.50;;;;;;5033754;28;20190;-44
2024/01/10 02:28:07;;;;;;;0.70;0.40;;;-4.70;31.50;;;;;;5033566;28;20417;-44
2024/01/10 02:30:33;;;;;;;2.60;2.40;;;-4.70;31.30;;;;;;5033558;28;20206;-43
2024/01/10 02:32:59;;;;;;;4.10;2.30;;;-4.70;31.30;;;;;;5033565;28;20178;-45
2024/01/10 02:35:26;;;;;;;0.70;0.30;;;-4.70;31.60;;;;;;5033491;28;20651;-44
2024/01/10 02:37:53;;;;;;;2.55;1.48;;;-4.70;31.50;;;;;;5033733;28;20177;-40
2024/01/10 02:40:20;;;;;;;3.30;2.05;;;-4.70;31.40;;;;;;5033111;28;20703;-43
2024/01/10 02:42:46;;;;;;;2.67;1.77;;;-4.80;31.20;;;;;;5033679;28;20189;-45
2024/01/10 02:45:12;;;;;;;2.30;2.20;;;-4.80;31.20;;;;;;5033133;28;20185;-43
2024/01/10 02:47:37;;;;;;;0.90;0.80;;;-4.80;31.20;;;;;;5032783;28;20805;-45
2024/01/10 02:50:04;;;;;;;4.53;2.27;;;-4.80;31.20;;;;;;5032929;28;20455;-45
2024/01/10 02:52:30;;;;;;;0.93;0.82;;;-4.80;31.40;;;;;;5033131;28;20478;-42
2024/01/10 02:54:56;;;;;;;2.40;1.80;;;-4.80;31.40;;;;;;5033033;28;20204;-43
2024/01/10 02:57:22;;;;;;;2.70;2.07;;;-4.80;31.30;;;;;;5033012;28;20740;-45
2024/01/10 02:59:48;;;;;;;2.03;1.93;;;-4.80;31.30;;;;;;5032680;28;20503;-44
2024/01/10 03:02:13;;;;;;;1.75;1.65;;;-4.80;31.50;;;;;;5026705;28;20432;-44
2024/01/10 03:04:41;;;;;;;2.70;2.50;;;-4.80;31.40;;;;;;5013100;28;20271;-41
2024/01/10 03:07:07;;;;;;;2.45;2.30;;;-4.80;31.30;;;;;;5013224;28;20939;-42
2024/01/10 03:09:33;;;;;;;1.50;1.40;;;-4.80;31.30;;;;;;5012757;28;20693;-46
2024/01/10 03:11:59;;;;;;;1.00;0.87;;;-4.80;31.30;;;;;;5013073;28;20193;-44
2024/01/10 03:14:25;;;;;;;1.80;1.70;;;-4.90;31.30;;;;;;5013062;28;20464;-42
2024/01/10 03:16:50;;;;;;;1.40;1.20;;;-4.90;31.10;;;;;;5013000;28;20179;-40
2024/01/10 03:19:16;;;;;;;1.17;1.00;;;-4.90;31.10;;;;;;5012756;28;20451;-44
2024/01/10 03:21:42;;;;;;;1.73;1.27;;;-4.90;31.30;;;;;;5012904;28;20496;-40
2024/01/10 03:24:08;;;;;;;2.00;1.90;;;-4.90;31.30;;;;;;5012737;28;20416;-42
2024/01/10 03:26:34;;;;;;;1.88;1.25;;;-4.90;31.20;;;;;;5012993;28;20417;-47
2024/01/10 03:29:00;;;;;;;0.70;0.30;;;-4.90;31.40;;;;;;5012997;28;20181;-46
2024/01/10 03:31:28;;;;;;;1.95;1.85;;;-4.90;31.30;;;;;;5012671;28;20929;-41
2024/01/10 03:33:54;;;;;;;0.70;0.30;;;-4.90;31.20;;;;;;5012659;28;20209;-43
2024/01/10 03:36:20;;;;;;;0.80;0.47;;;-4.90;31.30;;;;;;5012676;28;20179;-44
2024/01/10 03:38:46;;;;;;;1.60;1.43;;;-4.90;31.50;;;;;;5012402;28;20513;-42
2024/01/10 03:41:16;;;;;;;8.40;2.07;;;-5.00;31.20;;;;;;5013320;28;20212;-41
2024/01/10 03:43:42;;;;;;;3.17;2.58;;;-5.10;30.90;;;;;;5013631;28;20422;-45
2024/01/10 03:46:08;;;;;;;1.02;0.93;;;-5.10;31.20;;;;;;5013914;28;20676;-46
2024/01/10 03:48:34;;;;;;;2.90;1.30;;;-5.10;31.70;;;;;;5012379;28;20274;-46
2024/01/10 03:51:00;;;;;;;1.93;1.67;;;-5.00;31.70;;;;;;5012331;28;20656;-43
2024/01/10 03:53:26;;;;;;;3.73;3.33;;;-5.00;31.80;;;;;;4994746;28;20475;-46
2024/01/10 03:55:52;;;;;;;1.60;1.50;;;-5.00;31.70;;;;;;5012533;28;20413;-48
2024/01/10 03:58:18;;;;;;;2.30;2.10;;;-5.00;31.70;;;;;;5012183;28;20186;-42
2024/01/10 04:00:44;;;;;;;0.70;0.40;;;-4.90;31.70;;;;;;5012099;28;20442;-44
2024/01/10 04:03:09;;;;;;;1.23;1.13;;;-4.90;31.60;;;;;;5012236;28;20775;-44
2024/01/10 04:05:35;;;;;;;0.70;0.30;;;-5.00;31.70;;;;;;5012135;28;20472;-42
2024/01/10 04:08:01;;;;;;;0.90;0.57;;;-5.00;31.70;;;;;;5012066;28;20504;-41
2024/01/10 04:10:27;;;;;;;3.90;3.60;;;-5.00;31.60;;;;;;5012156;28;20448;-45
2024/01/10 04:12:53;;;;;;;0.80;0.50;;;-5.00;31.30;;;;;;5012028;28;20485;-46
2024/01/10 04:15:18;;;;;;;5.97;3.70;;;-5.00;31.20;;;;;;5012207;28;20182;-44
2024/01/10 04:17:44;;;;;;;2.83;2.63;;;-5.10;31.10;;;;;;5012086;28;20508;-43
2024/01/10 04:20:10;;;;;;;8.93;2.97;;;-5.10;31.20;;;;;;5011849;28;20469;-45
2024/01/10 04:22:36;;;;;;;4.00;3.70;;;-5.10;31.20;;;;;;5011966;28;20423;-46
2024/01/10 04:25:06;;;;;;;2.10;1.37;;;-5.10;31.20;;;;;;5012057;28;20178;-41
2024/01/10 04:27:32;;;;;;;0.80;0.52;;;-5.20;31.10;;;;;;5012232;28;20233;-44
2024/01/10 04:29:58;;;;;;;0.95;0.80;;;-5.20;31.30;;;;;;5011756;28;20203;-43
2024/01/10 04:32:23;;;;;;;6.63;3.40;;;-5.10;31.20;;;;;;5012060;28;20182;-43
2024/01/10 04:34:49;;;;;;;1.07;0.97;;;-5.10;31.10;;;;;;5011796;28;20226;-42
2024/01/10 04:37:16;;;;;;;1.20;1.10;;;-5.20;31.10;;;;;;5011898;28;20420;-48
2024/01/10 04:39:42;;;;;;;1.40;1.08;;;-5.20;31.00;;;;;;5011554;28;20337;-43
2024/01/10 04:42:10;;;;;;;1.95;1.85;;;-5.20;31.10;;;;;;5011745;28;20261;-43
2024/01/10 04:44:36;;;;;;;0.70;0.38;;;-5.20;31.20;;;;;;5011831;28;20375;-46
2024/01/10 04:47:03;;;;;;;1.38;1.27;;;-5.20;31.10;;;;;;5011940;28;20185;-46
2024/01/10 04:49:29;;;;;;;4.72;3.53;;;-5.10;31.20;;;;;;5011517;28;20917;-42
2024/01/10 04:51:55;;;;;;;11.27;3.90;;;-5.20;31.20;;;;;;5012013;28;20198;-44
2024/01/10 04:54:21;;;;;;;1.15;0.95;;;-5.10;31.40;;;;;;5011633;28;20460;-44
2024/01/10 04:56:47;;;;;;;1.80;1.70;;;-5.10;31.20;;;;;;5011604;28;20229;-41
2024/01/10 04:59:12;;;;;;;3.35;1.95;;;-5.10;31.20;;;;;;5011596;28;20278;-40
2024/01/10 05:01:38;;;;;;;2.20;2.00;;;-5.10;31.10;;;;;;5011691;28;20187;-47
2024/01/10 05:04:04;;;;;;;1.00;0.83;;;-5.10;31.20;;;;;;5011587;28;20452;-41
2024/01/10 05:06:30;;;;;;;1.90;1.77;;;-5.20;31.00;;;;;;5011553;28;20421;-47
2024/01/10 05:08:58;;;;;;;0.90;0.70;;;-5.20;31.00;;;;;;5011984;28;20185;-43
2024/01/10 05:11:25;;;;;;;2.60;2.50;;;-5.30;30.90;;;;;;5015276;28;20783;-42
2024/01/10 05:13:51;;;;;;;1.33;1.00;;;-5.30;31.00;;;;;;5015174;28;20845;-45
2024/01/10 05:16:17;;;;;;;0.70;0.32;;;-5.30;31.20;;;;;;5015317;28;20188;-44
2024/01/10 05:18:43;;;;;;;0.90;0.80;;;-5.20;31.20;;;;;;5015145;28;20184;-44
2024/01/10 05:21:09;;;;;;;11.70;4.30;;;-5.20;31.20;;;;;;5015178;28;20488;-45
2024/01/10 05:23:38;;;;;;;4.00;3.77;;;-5.20;31.50;;;;;;5015169;28;20412;-44
2024/01/10 05:26:04;;;;;;;1.00;0.90;;;-5.10;31.50;;;;;;5028234;28;20407;-42
2024/01/10 05:28:30;;;;;;;0.80;0.50;;;-5.10;31.60;;;;;;5034689;28;20186;-49
2024/01/10 05:30:57;;;;;;;0.90;0.77;;;-5.10;31.30;;;;;;5034604;28;20197;-47
2024/01/10 05:33:23;;;;;;;3.83;3.63;;;-5.20;31.00;;;;;;5034454;28;20535;-40
2024/01/10 05:35:49;;;;;;;1.67;1.57;;;-5.10;31.40;;;;;;5034790;28;20320;-44
2024/01/10 05:38:15;;;;;;;0.70;0.40;;;-5.10;31.60;;;;;;5034604;28;20917;-42
2024/01/10 05:40:40;;;;;;;3.65;1.42;;;-5.10;31.50;;;;;;5034134;28;20459;-41
2024/01/10 05:43:07;;;;;;;2.87;2.70;;;-5.10;31.60;;;;;;5034355;28;20184;-44
2024/01/10 05:45:33;;;;;;;1.00;0.90;;;-5.10;31.50;;;;;;5034346;28;20415;-43
2024/01/10 05:47:59;;;;;;;1.25;0.70;;;-5.10;31.30;;;;;;5034299;28;20176;-41
2024/01/10 05:50:25;;;;;;;7.97;3.33;;;-5.10;31.20;;;;;;5034063;28;20239;-42
2024/01/10 05:52:51;;;;;;;0.73;0.55;;;-5.10;31.70;;;;;;5034279;28;20202;-42
2024/01/10 05:55:17;;;;;;;0.90;0.73;;;-5.10;31.70;;;;;;5034221;28;20535;-42
2024/01/10 05:57:42;;;;;;;3.23;2.40;;;-5.10;31.50;;;;;;5034343;28;20173;-43
2024/01/10 06:00:12;;;;;;;1.93;1.17;;;-5.10;31.50;;;;;;5033961;28;20447;-43
2024/01/10 06:02:39;;;;;;;1.10;0.82;;;-5.10;31.30;;;;;;5033992;28;20471;-44
2024/01/10 06:05:06;;;;;;;1.60;1.25;;;-5.10;31.30;;;;;;5034062;28;20582;-44
2024/01/10 06:07:32;;;;;;;0.70;0.30;;;-5.10;31.80;;;;;;5034028;28;20189;-43
2024/01/10 06:09:58;;;;;;;0.80;0.67;;;-5.10;32.50;;;;;;5033708;28;20201;-49
2024/01/10 06:12:25;;;;;;;1.83;1.73;;;-5.10;31.70;;;;;;5033998;28;20507;-41
2024/01/10 06:14:51;;;;;;;3.90;2.78;;;-5.10;31.60;;;;;;5033695;28;20824;-43
2024/01/10 06:17:16;;;;;;;2.13;1.33;;;-5.10;31.70;;;;;;5033880;28;20265;-48
2024/01/10 06:19:42;;;;;;;0.97;0.60;;;-5.10;31.50;;;;;;5015481;28;20970;-45
2024/01/10 06:22:08;;;;;;;3.63;3.22;;;-5.10;31.50;;;;;;5026605;28;20437;-44
2024/01/10 06:24:34;;;;;;;0.93;0.83;;;-5.10;31.80;;;;;;5033734;28;20580;-44
2024/01/10 06:26:59;;;;;;;7.20;3.33;;;-5.10;31.80;;;;;;5033826;28;20171;-42
2024/01/10 06:29:25;;;;;;;1.60;1.37;;;-5.10;32.00;;;;;;5033535;28;20208;-45
2024/01/10 06:31:51;;;;;;;2.80;1.60;;;-5.10;32.10;;;;;;5033385;28;20177;-43
2024/01/10 06:34:17;;;;;;;0.93;0.83;;;-5.00;32.00;;;;;;5033588;28;20280;-43
2024/01/10 06:36:43;;;;;;;1.85;1.75;;;-5.00;31.80;;;;;;5033702;28;20440;-45
2024/01/10 06:39:12;;;;;;;2.53;2.40;;;-5.00;31.80;;;;;;5033073;28;20225;-41
2024/01/10 06:41:38;;;;;;;0.70;0.30;;;-5.00;31.70;;;;;;5033246;28;20722;-46
2024/01/10 06:44:04;;;;;;;1.83;0.93;;;-5.00;31.60;;;;;;5033222;28;20252;-47
2024/01/10 06:46:31;;;;;;;4.23;3.53;;;-5.00;31.70;;;;;;5033267;28;20186;-44
2024/01/10 06:48:59;;;;;;;0.80;0.40;;;-5.00;31.60;;;;;;5033487;28;20420;-42
2024/01/10 06:51:26;;;;;;;1.85;0.88;;;-5.00;31.60;;;;;;5033034;28;20197;-47
2024/01/10 06:53:52;;;;;;;1.65;1.00;;;-5.00;31.50;;;;;;5032858;28;20204;-47
2024/01/10 06:56:18;;;;;;;3.13;2.58;;;-5.00;31.50;;;;;;5033229;28;20178;-41
2024/01/10 06:58:47;;;;;;;0.70;0.30;;;-5.00;31.40;;;;;;5034033;28;20178;-44
2024/01/10 07:01:13;;;;;;;0.70;0.28;;;-5.00;31.50;;;;;;5033803;28;20787;-41
2024/01/10 07:03:40;;;;;;;2.17;2.03;;;-5.00;31.40;;;;;;5033073;28;20270;-45
2024/01/10 07:06:06;;;;;;;0.80;0.45;;;-5.00;31.50;;;;;;5033096;28;20235;-44
2024/01/10 07:08:31;;;;;;;1.20;1.10;;;-5.00;31.60;;;;;;5032818;28;20576;-42
2024/01/10 07:10:57;;;;;;;0.70;0.20;;;-5.10;31.70;;;;;;5032545;28;20436;-44
2024/01/10 07:13:24;;;;;;;1.02;0.88;;;-5.00;31.60;;;;;;5032636;28;20455;-47
2024/01/10 07:15:52;;;;;;;1.25;1.15;;;-5.10;31.70;;;;;;5032748;28;20178;-42
2024/01/10 07:18:18;;;;;;;0.75;0.45;;;-5.10;31.70;;;;;;5032869;28;20177;-41
2024/01/10 07:20:44;;;;;;;13.83;6.47;;;-5.10;31.70;;;;;;5032279;28;20200;-49
2024/01/10 07:23:10;;;;;;;0.70;0.33;;;-5.10;31.80;;;;;;5032638;28;20407;-50
2024/01/10 07:25:37;;;;;;;0.70;0.30;;;-5.00;31.80;;;;;;5032417;28;20404;-43
2024/01/10 07:28:03;;;;;;;2.03;1.48;;;-5.00;31.80;;;;;;5032479;28;20407;-49
2024/01/10 07:30:32;;;;;;;1.30;1.20;;;-4.90;31.90;;;;;;5032269;28;20208;-48
2024/01/10 07:32:59;;;;;;;0.70;0.20;;;-3.90;32.40;;;;;;5032055;28;20193;-41
2024/01/10 07:35:25;;;;;;;1.58;1.48;;;-4.90;31.80;;;;;;5032466;28;20284;-46
2024/01/10 07:37:51;;;;;;;2.93;2.73;;;-4.80;32.00;;;;;;5014635;28;20704;-41
2024/01/10 07:40:17;;;;;;;8.23;1.55;;;-4.70;32.10;;;;;;5032025;28;20451;-43
2024/01/10 07:42:43;;;;;;;1.00;0.83;;;-4.70;32.00;;;;;;5032381;28;20189;-46
2024/01/10 07:45:09;;;;;;;2.35;2.22;;;-4.70;31.80;;;;;;5032212;28;20983;-41
2024/01/10 07:47:39;;;;;;;1.08;0.82;;;-4.70;31.70;;;;;;5032287;28;20190;-42
2024/01/10 07:50:09;;;;;;;0.73;0.47;;;-4.70;31.80;;;;;;5031994;28;20713;-49
2024/01/10 07:52:36;;;;;;;1.05;0.85;;;-4.50;32.00;;;;;;5031991;28;20190;-47
2024/01/10 07:55:06;;;;;;;1.67;1.58;;;-4.40;32.00;;;;;;5031906;28;20196;-43
2024/01/10 07:57:33;;;;;;;0.80;0.57;;;-4.20;32.00;;;;;;5032010;28;20670;-49
2024/01/10 07:59:59;;;;;;;1.63;1.52;;;-4.00;32.00;;;;;;5031957;28;20217;-41
2024/01/10 08:02:25;;;;;;;24.27;3.28;;;-4.00;31.90;;;;;;5032081;28;20190;-44
2024/01/10 08:04:52;;;;;;;5.53;4.23;;;-3.90;31.80;;;;;;5031891;28;20185;-42
2024/01/10 08:07:19;;;;;;;1.75;1.65;;;-3.80;31.80;;;;;;5031876;28;20415;-43
2024/01/10 08:09:45;;;;;;;2.65;2.45;;;-3.60;32.00;;;;;;5031392;28;20218;-45
2024/01/10 08:12:11;;;;;;;1.67;1.00;;;-3.30;32.00;;;;;;5031870;28;20181;-43
2024/01/10 08:14:37;;;;;;;2.05;1.45;;;-3.00;31.90;;;;;;5031554;28;20499;-43
2024/01/10 08:17:04;;;;;;;3.50;2.15;;;-2.80;31.80;;;;;;5031860;28;20219;-47
2024/01/10 08:19:30;;;;;;;1.80;1.70;;;-2.70;31.70;;;;;;5031736;28;20202;-42
2024/01/10 08:21:56;;;;;;;1.67;1.40;;;-2.50;31.60;;;;;;5031663;28;20568;-46
2024/01/10 08:24:22;;;;;;;9.50;2.80;;;-2.40;31.60;;;;;;5031736;28;20421;-47
2024/01/10 08:26:57;;;;;;;2.55;2.00;;;-2.30;32.20;;;;;;5031682;28;20906;-41
2024/01/10 08:29:26;;;;;;;2.30;2.10;;;-2.20;31.50;;;;;;5031626;28;20205;-43
2024/01/10 08:31:52;;;;;;;6.43;3.97;;;-2.20;31.60;;;;;;5031601;28;20243;-49
2024/01/10 08:34:18;;;;;;;2.73;2.53;;;-2.10;31.70;;;;;;5031522;28;20627;-42
2024/01/10 08:36:44;;;;;;;4.23;3.17;;;-2.00;31.80;;;;;;5031425;28;20166;-42
2024/01/10 08:39:11;;;;;;;7.20;2.53;;;-1.70;31.80;;;;;;5031210;28;20201;-49
2024/01/10 08:41:42;;;;;;;1.52;1.42;;;-1.40;31.80;;;;;;5031648;28;20409;-52
2024/01/10 08:44:08;;;;;;;3.97;3.72;;;-1.00;31.60;;;;;;5032357;28;20192;-42
2024/01/10 08:46:34;;;;;;;8.43;3.70;;;-0.80;31.30;;;;;;5035572;28;20173;-42
2024/01/10 08:49:00;;;;;;;3.00;2.47;;;-0.40;31.50;;;;;;5035785;28;20415;-49
2024/01/10 08:51:27;;;;;;;5.33;2.77;;;-0.20;31.30;;;;;;5035262;28;20209;-44
2024/01/10 08:53:52;;;;;;;12.52;4.32;;;-0.10;31.00;;;;;;5035416;28;20210;-40
2024/01/10 08:56:19;;;;;;;9.00;4.95;;;0.20;30.90;;;;;;5035782;28;20192;-44
2024/01/10 08:58:45;;;;;;;2.10;1.75;;;0.30;30.70;;;;;;5035396;28;20182;-48
2024/01/10 09:01:11;;;;;;;1.83;1.73;;;0.50;30.40;;;;;;5034996;28;20208;-42
2024/01/10 09:03:40;;;;;;;1.85;1.75;;;0.70;30.40;;;;;;5035070;28;20174;-43
2024/01/10 09:06:07;;;;;;;2.47;2.28;;;1.10;30.60;;;;;;5035144;28;20264;-48
2024/01/10 09:08:34;;;;;;;0.90;0.70;;;1.40;30.40;;;;;;5035431;28;20182;-48
2024/01/10 09:11:00;;;;;;;2.28;1.98;;;1.90;30.10;;;;;;5034792;28;20283;-43
2024/01/10 09:13:26;;;;;;;3.30;1.88;;;2.50;29.80;;;;;;5034907;28;20293;-47
2024/01/10 09:15:52;;;;;;;7.47;3.10;;;3.20;29.00;;;;;;5034905;28;20183;-43
2024/01/10 09:18:17;;;;;;;21.52;6.07;;;3.60;28.70;;;;;;5034996;28;20413;-47
2024/01/10 09:20:43;;;;;;;26.23;5.50;;;3.70;28.00;;;;;;5033211;28;20564;-46
2024/01/10 09:23:10;;;;;;;4.28;3.88;;;3.80;28.10;;;;;;5015137;28;20268;-44
2024/01/10 09:25:36;;;;;;;4.22;2.38;;;3.70;26.60;;;;;;5015021;28;20657;-48
2024/01/10 09:28:04;;;;;;;4.30;2.92;;;3.60;27.40;;;;;;5027236;28;20174;-46
2024/01/10 09:30:30;;;;;;;5.10;3.40;;;3.40;27.70;;;;;;5034596;28;20202;-42
2024/01/10 09:32:56;;;;;;;6.73;3.83;;;3.40;28.00;;;;;;5023337;28;20174;-44
2024/01/10 09:35:22;;;;;;;2.90;2.70;;;3.30;27.50;;;;;;5015014;28;20572;-46
2024/01/10 09:37:49;;;;;;;3.95;3.33;;;3.20;27.20;;;;;;5015132;28;20532;-41
2024/01/10 09:40:16;;;;;;;2.53;2.13;;;3.00;27.80;;;;;;5014619;28;20229;-41
2024/01/10 09:42:44;;;;;;;2.10;1.30;;;2.90;27.00;;;;;;5014705;28;20174;-44
2024/01/10 09:45:13;;;;;;;1.30;1.05;;;2.70;27.50;;;;;;5014781;28;20183;-44
2024/01/10 09:47:43;;;;;;;3.65;2.78;;;2.60;28.70;;;;;;5015364;28;20209;-42
2024/01/10 09:50:10;;;;;;;13.45;3.30;;;2.60;28.60;;;;;;5034172;28;20204;-49
2024/01/10 09:52:50;;;;;;;2.97;2.70;;;2.80;28.10;;;;;;5034339;28;20181;-48
2024/01/10 09:55:17;;;;;;;1.83;1.73;;;3.40;27.30;;;;;;5033949;28;20460;-45
2024/01/10 09:57:42;;;;;;;7.65;5.32;;;4.00;26.90;;;;;;5034259;28;20178;-45
2024/01/10 10:00:14;;;;;;;7.07;6.35;;;4.60;26.40;;;;;;5033936;28;20197;-44
2024/01/10 10:02:41;;;;;;;3.63;2.92;;;5.10;25.60;;;;;;5034097;28;20194;-48
2024/01/10 10:05:15;;;;;;;8.57;5.15;;;4.90;22.00;;;;;;5034184;28;20216;-42
2024/01/10 10:07:50;;;;;;;3.60;3.30;;;4.60;25.70;;;;;;5034321;28;20242;-43
2024/01/10 10:10:17;;;;;;;2.25;1.30;;;4.60;26.50;;;;;;5033946;28;20209;-50
2024/01/10 10:12:53;;;;;;;9.48;4.97;;;4.70;25.70;;;;;;5034116;28;20173;-42
2024/01/10 10:15:26;;;;;;;7.07;2.90;;;5.30;25.80;;;;;;5034162;28;20210;-44
2024/01/10 10:17:53;;;;;;;15.43;6.20;;;6.00;23.50;;;;;;5033921;28;20240;-46
2024/01/10 10:20:38;;;;;;;7.40;6.70;;;6.70;24.00;;;;;;5033621;28;20210;-46
2024/01/10 10:23:06;;;;;;;8.68;3.08;;;7.20;21.50;;;;;;5033828;28;20166;-50
2024/01/10 10:25:33;;;;;;;8.05;5.75;;;7.70;22.80;;;;;;5033801;28;20228;-49
2024/01/10 10:28:00;;;;;;;9.27;4.53;;;8.20;22.30;;;;;;5033801;28;20178;-43
2024/01/10 10:30:27;;;;;;;8.80;4.85;;;8.70;21.20;;;;;;5033434;28;20198;-48
2024/01/10 10:32:53;;;;;;;11.65;5.32;;;9.20;21.10;;;;;;5033480;28;20174;-47
2024/01/10 10:35:20;;;;;;;10.67;6.93;;;9.60;19.90;;;;;;5033542;28;20606;-45
2024/01/10 10:37:51;;;;;;;9.88;6.30;;;9.80;18.50;;;;;;5033343;28;20409;-41
2024/01/10 10:40:18;;;;;;;17.45;7.13;;;9.60;19.20;;;;;;5033121;28;20218;-51
2024/01/10 10:42:55;;;;;;;10.95;8.50;;;9.60;19.40;;;;;;5033456;28;20580;-41
2024/01/10 10:45:25;;;;;;;11.43;4.68;;;9.50;19.60;;;;;;5033411;28;20195;-47
2024/01/10 10:47:58;;;;;;;6.22;4.53;;;9.10;20.60;;;;;;5033198;28;20214;-43
2024/01/10 10:50:25;;;;;;;4.97;4.38;;;9.00;20.80;;;;;;5033720;28;20280;-42
2024/01/10 10:52:51;;;;;;;12.85;5.40;;;9.10;20.00;;;;;;5014870;28;20225;-50
2024/01/10 10:55:23;;;;;;;8.68;4.30;;;9.30;19.60;;;;;;5013277;28;20704;-47
2024/01/10 10:57:49;;;;;;;5.80;5.25;;;9.10;18.50;;;;;;5013771;28;20190;-45
2024/01/10 11:00:21;;;;;;;5.00;4.50;;;8.90;19.40;;;;;;5013280;28;20580;-49
2024/01/10 11:02:47;;;;;;;9.13;6.22;;;9.00;19.90;;;;;;5013485;28;20198;-46
2024/01/10 11:05:13;;;;;;;7.25;6.13;;;9.20;19.30;;;;;;5013625;28;20190;-44
2024/01/10 11:07:46;;;;;;;6.80;6.10;;;9.00;19.90;;;;;;5012957;28;20420;-47
2024/01/10 11:10:31;;;;;;;10.57;9.25;;;8.80;19.70;;;;;;5013016;28;20713;-43
2024/01/10 11:13:19;;;;;;;7.80;5.95;;;8.60;19.60;;;;;;5012990;28;20193;-45
2024/01/10 11:15:56;;;;;;;10.27;6.45;;;8.40;19.80;;;;;;5013243;28;20181;-48
2024/01/10 11:18:30;;;;;;;10.48;5.40;;;8.10;18.60;;;;;;5012975;28;20231;-43
2024/01/10 11:21:20;;;;;;;4.35;3.38;;;7.80;19.70;;;;;;5012779;28;20194;-44
2024/01/10 11:23:59;;;;;;;9.85;6.22;;;7.50;20.00;;;;;;5012915;28;20568;-42
2024/01/10 11:26:25;;;;;;;7.47;4.32;;;7.20;20.30;;;;;;5013000;28;20178;-42
2024/01/10 11:28:52;;;;;;;7.35;3.90;;;7.00;21.20;;;;;;5012807;28;20186;-48
2024/01/10 11:31:29;;;;;;;6.78;3.60;;;6.80;20.40;;;;;;5012494;28;20209;-46
2024/01/10 11:34:00;;;;;;;6.88;3.78;;;6.80;21.10;;;;;;5012676;28;20253;-45
2024/01/10 11:36:26;;;;;;;4.40;3.55;;;6.80;21.70;;;;;;5019854;28;20185;-47
2024/01/10 11:38:56;;;;;;;11.38;6.18;;;6.70;21.60;;;;;;5021902;28;20249;-43
2024/01/10 11:41:35;;;;;;;5.05;4.55;;;6.80;21.40;;;;;;5012638;28;20190;-41
2024/01/10 11:44:17;;;;;;;5.68;5.03;;;7.10;21.90;;;;;;5004579;28;20596;-48
2024/01/10 11:46:50;;;;;;;6.97;3.95;;;7.60;21.70;;;;;;5012435;28;20189;-44
2024/01/10 11:49:18;;;;;;;6.88;3.78;;;7.70;20.80;;;;;;5012361;28;20224;-49
2024/01/10 11:51:45;;;;;;;4.80;4.50;;;7.90;22.40;;;;;;5012424;28;20592;-46
2024/01/10 11:54:11;;;;;;;8.82;3.63;;;8.20;22.60;;;;;;5012199;28;20194;-50
2024/01/10 11:56:43;;;;;;;4.37;3.70;;;8.30;21.00;;;;;;5012224;28;20181;-50
2024/01/10 11:59:15;;;;;;;5.68;3.72;;;8.50;20.70;;;;;;5012115;28;20456;-42
2024/01/10 12:01:42;;;;;;;10.80;5.38;;;8.80;20.40;;;;;;5012152;28;20179;-47
2024/01/10 12:04:11;;;;;;;12.85;6.47;;;9.30;20.00;;;;;;5012290;28;20651;-44
2024/01/10 12:06:38;;;;;;;8.15;5.68;;;9.80;20.30;;;;;;5012139;28;20652;-48
2024/01/10 12:09:12;;;;;;;11.27;7.05;;;10.20;20.30;;;;;;5012082;28;20530;-45
2024/01/10 12:11:41;;;;;;;7.97;5.30;;;10.40;20.20;;;;;;5012199;28;20724;-44
2024/01/10 12:14:09;;;;;;;8.13;5.68;;;10.40;20.00;;;;;;5012036;28;20217;-51
2024/01/10 12:16:35;;;;;;;8.15;5.45;;;10.50;20.60;;;;;;5012216;28;20179;-45
2024/01/10 12:19:01;;;;;;;16.77;7.13;;;10.50;19.90;;;;;;5007269;28;20179;-45
2024/01/10 12:21:27;;;;;;;7.32;5.65;;;10.40;20.90;;;;;;5031652;28;20181;-52
2024/01/10 12:23:53;;;;;;;6.83;5.00;;;10.40;21.80;;;;;;5029303;28;20550;-50
2024/01/10 12:26:19;;;;;;;5.33;4.60;;;10.40;20.00;;;;;;5012034;28;20765;-44
2024/01/10 12:28:59;;;;;;;13.15;4.60;;;10.60;21.80;;;;;;5011999;28;20188;-47
2024/01/10 12:31:28;;;;;;;13.77;5.40;;;11.40;21.70;;;;;;5011812;28;20580;-51
2024/01/10 12:33:59;;;;;;;7.35;3.70;;;12.40;20.80;;;;;;5011741;28;20233;-44
2024/01/10 12:36:25;;;;;;;11.73;7.28;;;13.20;19.70;;;;;;5011922;28;20202;-49
2024/01/10 12:38:51;;;;;;;9.20;5.93;;;13.80;18.20;;;;;;5011744;28;20198;-48
2024/01/10 12:41:18;;;;;;;12.65;7.50;;;14.30;17.40;;;;;;5011610;28;20816;-45
2024/01/10 12:43:50;;;;;;;20.15;6.93;;;15.20;17.80;;;;;;5011731;28;20213;-49
2024/01/10 12:46:16;;;;;;;9.18;6.18;;;16.00;16.40;;;;;;5011789;28;20265;-46
2024/01/10 12:48:42;;;;;;;10.27;6.18;;;16.80;16.20;;;;;;5028834;28;20261;-45